sensor_id;sensor_type;location;lat;lon;timestamp;P1;durP1;ratioP1;P2;durP2;ratioP2
11761;SDS011;5938;47.098;15.474;2023-06-22T00:03:51;16.93;;;14.90;;
11761;SDS011;5938;47.098;15.474;2023-06-22T00:07:55;15.87;;;13.83;;
11761;SDS011;5938;47.098;15.474;2023-06-22T00:12:00;17.60;;;14.77;;
11761;SDS011;5938;47.098;15.474;2023-06-22T00:16:03;17.30;;;15.23;;
11761;SDS011;5938;47.098;15.474;2023-06-22T00:20:07;22.80;;;15.77;;
11761;SDS011;5938;47.098;15.474;2023-06-22T00:24:12;20.20;;;15.90;;
11761;SDS011;5938;47.098;15.474;2023-06-22T00:28:17;22.23;;;14.60;;
11761;SDS011;5938;47.098;15.474;2023-06-22T00:32:21;15.90;;;14.20;;
11761;SDS011;5938;47.098;15.474;2023-06-22T00:36:24;15.77;;;13.77;;
11761;SDS011;5938;47.098;15.474;2023-06-22T00:40:28;14.97;;;13.37;;
11761;SDS011;5938;47.098;15.474;2023-06-22T00:44:34;14.40;;;13.00;;
11761;SDS011;5938;47.098;15.474;2023-06-22T00:48:37;19.13;;;15.70;;
11761;SDS011;5938;47.098;15.474;2023-06-22T00:52:44;16.80;;;14.10;;
11761;SDS011;5938;47.098;15.474;2023-06-22T00:56:48;22.00;;;16.00;;
11761;SDS011;5938;47.098;15.474;2023-06-22T01:00:54;16.90;;;14.43;;
11761;SDS011;5938;47.098;15.474;2023-06-22T01:04:58;17.70;;;14.27;;
11761;SDS011;5938;47.098;15.474;2023-06-22T01:09:02;15.87;;;13.07;;
11761;SDS011;5938;47.098;15.474;2023-06-22T01:13:13;16.90;;;13.20;;
11761;SDS011;5938;47.098;15.474;2023-06-22T01:17:26;17.27;;;13.73;;
11761;SDS011;5938;47.098;15.474;2023-06-22T01:21:30;21.43;;;14.30;;
11761;SDS011;5938;47.098;15.474;2023-06-22T01:25:36;15.67;;;12.97;;
11761;SDS011;5938;47.098;15.474;2023-06-22T01:29:51;19.17;;;13.87;;
11761;SDS011;5938;47.098;15.474;2023-06-22T01:34:03;18.30;;;13.60;;
11761;SDS011;5938;47.098;15.474;2023-06-22T01:38:07;17.20;;;14.07;;
11761;SDS011;5938;47.098;15.474;2023-06-22T01:42:12;19.40;;;14.57;;
11761;SDS011;5938;47.098;15.474;2023-06-22T01:46:17;17.07;;;12.50;;
11761;SDS011;5938;47.098;15.474;2023-06-22T01:50:21;13.30;;;12.07;;
11761;SDS011;5938;47.098;15.474;2023-06-22T01:54:25;17.33;;;12.23;;
11761;SDS011;5938;47.098;15.474;2023-06-22T01:58:29;18.03;;;14.83;;
11761;SDS011;5938;47.098;15.474;2023-06-22T02:02:36;16.77;;;13.20;;
11761;SDS011;5938;47.098;15.474;2023-06-22T02:06:45;16.50;;;12.83;;
11761;SDS011;5938;47.098;15.474;2023-06-22T02:10:53;17.13;;;11.53;;
11761;SDS011;5938;47.098;15.474;2023-06-22T02:14:59;18.67;;;12.97;;
11761;SDS011;5938;47.098;15.474;2023-06-22T02:19:05;16.83;;;13.93;;
11761;SDS011;5938;47.098;15.474;2023-06-22T02:23:08;18.70;;;12.57;;
11761;SDS011;5938;47.098;15.474;2023-06-22T02:27:12;15.97;;;12.20;;
11761;SDS011;5938;47.098;15.474;2023-06-22T02:31:15;15.97;;;13.43;;
11761;SDS011;5938;47.098;15.474;2023-06-22T02:35:20;17.33;;;12.20;;
11761;SDS011;5938;47.098;15.474;2023-06-22T02:39:24;13.30;;;11.90;;
11761;SDS011;5938;47.098;15.474;2023-06-22T02:43:27;14.10;;;11.50;;
11761;SDS011;5938;47.098;15.474;2023-06-22T02:47:31;20.37;;;13.27;;
11761;SDS011;5938;47.098;15.474;2023-06-22T02:51:37;19.97;;;13.10;;
11761;SDS011;5938;47.098;15.474;2023-06-22T02:55:43;12.50;;;11.20;;
11761;SDS011;5938;47.098;15.474;2023-06-22T02:59:46;17.23;;;14.03;;
11761;SDS011;5938;47.098;15.474;2023-06-22T03:03:49;18.23;;;14.37;;
11761;SDS011;5938;47.098;15.474;2023-06-22T03:07:54;21.40;;;14.47;;
11761;SDS011;5938;47.098;15.474;2023-06-22T03:11:58;14.70;;;11.90;;
11761;SDS011;5938;47.098;15.474;2023-06-22T03:16:01;14.03;;;11.63;;
11761;SDS011;5938;47.098;15.474;2023-06-22T03:20:05;15.13;;;13.40;;
11761;SDS011;5938;47.098;15.474;2023-06-22T03:24:13;14.63;;;11.77;;
11761;SDS011;5938;47.098;15.474;2023-06-22T03:28:17;13.50;;;11.50;;
11761;SDS011;5938;47.098;15.474;2023-06-22T03:32:20;13.90;;;12.03;;
11761;SDS011;5938;47.098;15.474;2023-06-22T03:36:24;15.50;;;13.20;;
11761;SDS011;5938;47.098;15.474;2023-06-22T03:40:28;18.83;;;12.73;;
11761;SDS011;5938;47.098;15.474;2023-06-22T03:44:32;17.50;;;13.30;;
11761;SDS011;5938;47.098;15.474;2023-06-22T03:48:37;16.23;;;13.10;;
11761;SDS011;5938;47.098;15.474;2023-06-22T03:52:40;18.97;;;13.03;;
11761;SDS011;5938;47.098;15.474;2023-06-22T03:56:45;14.97;;;11.77;;
11761;SDS011;5938;47.098;15.474;2023-06-22T04:00:49;13.23;;;11.40;;
11761;SDS011;5938;47.098;15.474;2023-06-22T04:04:56;18.37;;;12.80;;
11761;SDS011;5938;47.098;15.474;2023-06-22T04:09:05;16.60;;;13.50;;
11761;SDS011;5938;47.098;15.474;2023-06-22T04:13:10;18.90;;;13.43;;
11761;SDS011;5938;47.098;15.474;2023-06-22T04:17:13;20.30;;;13.47;;
11761;SDS011;5938;47.098;15.474;2023-06-22T04:21:17;21.83;;;14.77;;
11761;SDS011;5938;47.098;15.474;2023-06-22T04:25:21;14.50;;;12.40;;
11761;SDS011;5938;47.098;15.474;2023-06-22T04:29:26;19.10;;;13.83;;
11761;SDS011;5938;47.098;15.474;2023-06-22T04:33:31;15.60;;;13.00;;
11761;SDS011;5938;47.098;15.474;2023-06-22T04:37:35;20.93;;;14.90;;
11761;SDS011;5938;47.098;15.474;2023-06-22T04:41:39;17.93;;;12.70;;
11761;SDS011;5938;47.098;15.474;2023-06-22T04:45:47;18.40;;;14.07;;
11761;SDS011;5938;47.098;15.474;2023-06-22T04:49:54;21.63;;;13.30;;
11761;SDS011;5938;47.098;15.474;2023-06-22T04:53:57;20.07;;;14.43;;
11761;SDS011;5938;47.098;15.474;2023-06-22T04:58:02;13.80;;;12.40;;
11761;SDS011;5938;47.098;15.474;2023-06-22T05:02:08;15.10;;;13.33;;
11761;SDS011;5938;47.098;15.474;2023-06-22T05:06:12;16.77;;;13.97;;
11761;SDS011;5938;47.098;15.474;2023-06-22T05:10:16;14.23;;;12.47;;
11761;SDS011;5938;47.098;15.474;2023-06-22T05:14:19;17.90;;;14.27;;
11761;SDS011;5938;47.098;15.474;2023-06-22T05:18:24;24.30;;;16.27;;
11761;SDS011;5938;47.098;15.474;2023-06-22T05:22:28;17.93;;;15.53;;
11761;SDS011;5938;47.098;15.474;2023-06-22T05:26:32;25.70;;;16.50;;
11761;SDS011;5938;47.098;15.474;2023-06-22T05:30:37;22.20;;;15.10;;
11761;SDS011;5938;47.098;15.474;2023-06-22T05:34:42;16.53;;;14.40;;
11761;SDS011;5938;47.098;15.474;2023-06-22T05:38:45;21.17;;;14.90;;
11761;SDS011;5938;47.098;15.474;2023-06-22T05:42:49;19.00;;;16.10;;
11761;SDS011;5938;47.098;15.474;2023-06-22T05:46:54;17.90;;;16.00;;
11761;SDS011;5938;47.098;15.474;2023-06-22T05:50:59;21.57;;;16.40;;
11761;SDS011;5938;47.098;15.474;2023-06-22T05:55:02;19.07;;;15.73;;
11761;SDS011;5938;47.098;15.474;2023-06-22T05:59:06;17.60;;;15.40;;
11761;SDS011;5938;47.098;15.474;2023-06-22T06:03:09;20.73;;;15.10;;
11761;SDS011;5938;47.098;15.474;2023-06-22T06:07:20;19.93;;;15.60;;
11761;SDS011;5938;47.098;15.474;2023-06-22T06:11:24;21.23;;;16.33;;
11761;SDS011;5938;47.098;15.474;2023-06-22T06:15:27;24.57;;;15.37;;
11761;SDS011;5938;47.098;15.474;2023-06-22T06:19:31;18.23;;;15.97;;
11761;SDS011;5938;47.098;15.474;2023-06-22T06:23:36;21.33;;;14.77;;
11761;SDS011;5938;47.098;15.474;2023-06-22T06:27:39;20.70;;;16.07;;
11761;SDS011;5938;47.098;15.474;2023-06-22T06:31:42;16.90;;;14.73;;
11761;SDS011;5938;47.098;15.474;2023-06-22T06:35:46;20.90;;;16.33;;
11761;SDS011;5938;47.098;15.474;2023-06-22T06:39:51;18.57;;;16.27;;
11761;SDS011;5938;47.098;15.474;2023-06-22T06:43:54;17.17;;;15.47;;
11761;SDS011;5938;47.098;15.474;2023-06-22T06:47:58;17.30;;;15.50;;
11761;SDS011;5938;47.098;15.474;2023-06-22T06:52:01;18.03;;;15.47;;
11761;SDS011;5938;47.098;15.474;2023-06-22T06:56:06;18.50;;;16.40;;
11761;SDS011;5938;47.098;15.474;2023-06-22T07:00:12;18.60;;;14.20;;
11761;SDS011;5938;47.098;15.474;2023-06-22T07:04:16;19.33;;;14.17;;
11761;SDS011;5938;47.098;15.474;2023-06-22T07:08:20;16.00;;;13.57;;
11761;SDS011;5938;47.098;15.474;2023-06-22T07:12:25;14.80;;;13.20;;
11761;SDS011;5938;47.098;15.474;2023-06-22T07:16:28;14.10;;;12.60;;
11761;SDS011;5938;47.098;15.474;2023-06-22T07:20:33;15.90;;;14.10;;
11761;SDS011;5938;47.098;15.474;2023-06-22T07:24:36;15.23;;;12.37;;
11761;SDS011;5938;47.098;15.474;2023-06-22T07:28:43;13.00;;;11.70;;
11761;SDS011;5938;47.098;15.474;2023-06-22T07:32:47;16.40;;;14.30;;
11761;SDS011;5938;47.098;15.474;2023-06-22T07:36:50;18.27;;;12.93;;
11761;SDS011;5938;47.098;15.474;2023-06-22T07:40:54;15.47;;;13.30;;
11761;SDS011;5938;47.098;15.474;2023-06-22T07:44:58;15.80;;;13.77;;
11761;SDS011;5938;47.098;15.474;2023-06-22T07:49:02;14.33;;;12.93;;
11761;SDS011;5938;47.098;15.474;2023-06-22T07:53:05;14.93;;;13.53;;
11761;SDS011;5938;47.098;15.474;2023-06-22T07:57:08;17.03;;;12.97;;
11761;SDS011;5938;47.098;15.474;2023-06-22T08:01:13;14.23;;;12.90;;
11761;SDS011;5938;47.098;15.474;2023-06-22T08:05:17;14.40;;;12.60;;
11761;SDS011;5938;47.098;15.474;2023-06-22T08:09:23;14.97;;;13.30;;
11761;SDS011;5938;47.098;15.474;2023-06-22T08:13:26;15.60;;;11.97;;
11761;SDS011;5938;47.098;15.474;2023-06-22T08:17:31;17.33;;;13.60;;
11761;SDS011;5938;47.098;15.474;2023-06-22T08:21:35;17.70;;;13.23;;
11761;SDS011;5938;47.098;15.474;2023-06-22T08:25:39;16.00;;;13.90;;
11761;SDS011;5938;47.098;15.474;2023-06-22T08:29:43;14.87;;;13.37;;
11761;SDS011;5938;47.098;15.474;2023-06-22T08:33:48;13.60;;;12.30;;
11761;SDS011;5938;47.098;15.474;2023-06-22T08:37:51;12.27;;;11.07;;
11761;SDS011;5938;47.098;15.474;2023-06-22T08:41:55;13.63;;;12.33;;
11761;SDS011;5938;47.098;15.474;2023-06-22T08:45:59;12.40;;;11.20;;
11761;SDS011;5938;47.098;15.474;2023-06-22T08:50:06;16.57;;;12.47;;
11761;SDS011;5938;47.098;15.474;2023-06-22T08:54:10;18.30;;;11.23;;
11761;SDS011;5938;47.098;15.474;2023-06-22T08:58:14;13.73;;;11.70;;
11761;SDS011;5938;47.098;15.474;2023-06-22T09:02:18;12.63;;;11.33;;
11761;SDS011;5938;47.098;15.474;2023-06-22T09:06:23;12.93;;;11.33;;
11761;SDS011;5938;47.098;15.474;2023-06-22T09:10:26;14.83;;;12.33;;
11761;SDS011;5938;47.098;15.474;2023-06-22T09:14:31;13.60;;;12.30;;
11761;SDS011;5938;47.098;15.474;2023-06-22T09:18:34;13.40;;;12.20;;
11761;SDS011;5938;47.098;15.474;2023-06-22T09:22:40;14.90;;;11.93;;
11761;SDS011;5938;47.098;15.474;2023-06-22T09:26:43;14.23;;;12.70;;
11761;SDS011;5938;47.098;15.474;2023-06-22T09:30:47;13.53;;;11.93;;
11761;SDS011;5938;47.098;15.474;2023-06-22T09:34:50;16.03;;;12.77;;
11761;SDS011;5938;47.098;15.474;2023-06-22T09:38:55;11.73;;;10.63;;
11761;SDS011;5938;47.098;15.474;2023-06-22T09:43:00;14.03;;;11.57;;
11761;SDS011;5938;47.098;15.474;2023-06-22T09:47:04;13.60;;;12.17;;
11761;SDS011;5938;47.098;15.474;2023-06-22T09:51:08;13.27;;;11.87;;
11761;SDS011;5938;47.098;15.474;2023-06-22T09:55:13;12.07;;;10.70;;
11761;SDS011;5938;47.098;15.474;2023-06-22T09:59:17;13.00;;;11.60;;
11761;SDS011;5938;47.098;15.474;2023-06-22T10:03:21;12.20;;;11.03;;
11761;SDS011;5938;47.098;15.474;2023-06-22T10:07:25;11.73;;;10.73;;
11761;SDS011;5938;47.098;15.474;2023-06-22T10:11:29;12.97;;;11.60;;
11761;SDS011;5938;47.098;15.474;2023-06-22T10:15:33;13.67;;;12.30;;
11761;SDS011;5938;47.098;15.474;2023-06-22T10:19:36;14.30;;;9.90;;
11761;SDS011;5938;47.098;15.474;2023-06-22T10:23:40;11.73;;;10.60;;
11761;SDS011;5938;47.098;15.474;2023-06-22T10:27:44;12.30;;;10.83;;
11761;SDS011;5938;47.098;15.474;2023-06-22T10:31:48;12.27;;;11.00;;
11761;SDS011;5938;47.098;15.474;2023-06-22T10:35:51;13.03;;;11.70;;
11761;SDS011;5938;47.098;15.474;2023-06-22T10:39:54;13.37;;;12.20;;
11761;SDS011;5938;47.098;15.474;2023-06-22T10:43:59;12.60;;;11.40;;
11761;SDS011;5938;47.098;15.474;2023-06-22T10:48:04;13.10;;;11.70;;
11761;SDS011;5938;47.098;15.474;2023-06-22T10:52:08;12.97;;;11.80;;
11761;SDS011;5938;47.098;15.474;2023-06-22T10:56:11;15.00;;;11.37;;
11761;SDS011;5938;47.098;15.474;2023-06-22T11:00:16;18.87;;;11.37;;
11761;SDS011;5938;47.098;15.474;2023-06-22T11:04:20;14.53;;;13.20;;
11761;SDS011;5938;47.098;15.474;2023-06-22T11:08:24;12.67;;;11.57;;
11761;SDS011;5938;47.098;15.474;2023-06-22T11:12:27;16.10;;;12.27;;
11761;SDS011;5938;47.098;15.474;2023-06-22T11:16:32;13.57;;;12.20;;
11761;SDS011;5938;47.098;15.474;2023-06-22T11:20:36;13.07;;;11.83;;
11761;SDS011;5938;47.098;15.474;2023-06-22T11:24:42;14.60;;;13.20;;
11761;SDS011;5938;47.098;15.474;2023-06-22T11:28:45;14.60;;;13.20;;
11761;SDS011;5938;47.098;15.474;2023-06-22T11:32:50;12.60;;;11.33;;
11761;SDS011;5938;47.098;15.474;2023-06-22T11:36:54;14.20;;;12.60;;
11761;SDS011;5938;47.098;15.474;2023-06-22T11:40:57;14.47;;;12.70;;
11761;SDS011;5938;47.098;15.474;2023-06-22T11:45:01;13.93;;;12.73;;
11761;SDS011;5938;47.098;15.474;2023-06-22T11:49:08;13.10;;;11.80;;
11761;SDS011;5938;47.098;15.474;2023-06-22T11:53:12;13.90;;;12.50;;
11761;SDS011;5938;47.098;15.474;2023-06-22T11:57:18;13.40;;;12.10;;
11761;SDS011;5938;47.098;15.474;2023-06-22T12:01:25;12.80;;;11.50;;
11761;SDS011;5938;47.098;15.474;2023-06-22T12:05:30;13.83;;;12.73;;
11761;SDS011;5938;47.098;15.474;2023-06-22T12:09:35;12.90;;;11.60;;
11761;SDS011;5938;47.098;15.474;2023-06-22T12:13:40;13.87;;;12.47;;
11761;SDS011;5938;47.098;15.474;2023-06-22T12:17:45;13.77;;;12.47;;
11761;SDS011;5938;47.098;15.474;2023-06-22T12:21:52;13.90;;;12.53;;
11761;SDS011;5938;47.098;15.474;2023-06-22T12:25:59;13.33;;;11.93;;
11761;SDS011;5938;47.098;15.474;2023-06-22T12:30:04;14.03;;;12.60;;
11761;SDS011;5938;47.098;15.474;2023-06-22T12:34:10;13.23;;;12.00;;
11761;SDS011;5938;47.098;15.474;2023-06-22T12:38:15;13.37;;;12.10;;
11761;SDS011;5938;47.098;15.474;2023-06-22T12:42:19;12.43;;;11.33;;
11761;SDS011;5938;47.098;15.474;2023-06-22T12:46:26;13.20;;;11.97;;
11761;SDS011;5938;47.098;15.474;2023-06-22T12:50:31;13.07;;;11.87;;
11761;SDS011;5938;47.098;15.474;2023-06-22T12:54:37;12.27;;;11.20;;
11761;SDS011;5938;47.098;15.474;2023-06-22T12:58:55;13.60;;;12.27;;
11761;SDS011;5938;47.098;15.474;2023-06-22T13:02:59;12.90;;;11.90;;
11761;SDS011;5938;47.098;15.474;2023-06-22T13:07:10;13.23;;;12.03;;
11761;SDS011;5938;47.098;15.474;2023-06-22T13:11:17;14.30;;;13.07;;
11761;SDS011;5938;47.098;15.474;2023-06-22T13:15:22;12.87;;;11.63;;
11761;SDS011;5938;47.098;15.474;2023-06-22T13:19:25;15.57;;;13.77;;
11761;SDS011;5938;47.098;15.474;2023-06-22T13:23:33;14.10;;;12.77;;
11761;SDS011;5938;47.098;15.474;2023-06-22T13:27:38;13.93;;;12.73;;
11761;SDS011;5938;47.098;15.474;2023-06-22T13:31:42;16.93;;;12.80;;
11761;SDS011;5938;47.098;15.474;2023-06-22T13:35:45;13.93;;;12.63;;
11761;SDS011;5938;47.098;15.474;2023-06-22T13:39:48;13.47;;;12.07;;
11761;SDS011;5938;47.098;15.474;2023-06-22T13:43:53;12.63;;;11.50;;
11761;SDS011;5938;47.098;15.474;2023-06-22T13:47:57;13.97;;;12.77;;
11761;SDS011;5938;47.098;15.474;2023-06-22T13:52:00;14.23;;;12.90;;
11761;SDS011;5938;47.098;15.474;2023-06-22T13:56:04;13.83;;;12.33;;
11761;SDS011;5938;47.098;15.474;2023-06-22T14:00:10;13.90;;;12.37;;
11761;SDS011;5938;47.098;15.474;2023-06-22T14:04:15;12.67;;;11.63;;
11761;SDS011;5938;47.098;15.474;2023-06-22T14:08:18;12.73;;;11.57;;
11761;SDS011;5938;47.098;15.474;2023-06-22T14:12:27;13.27;;;12.03;;
11761;SDS011;5938;47.098;15.474;2023-06-22T14:16:33;14.17;;;13.00;;
11761;SDS011;5938;47.098;15.474;2023-06-22T14:20:37;14.50;;;12.60;;
11761;SDS011;5938;47.098;15.474;2023-06-22T14:24:41;16.63;;;12.40;;
11761;SDS011;5938;47.098;15.474;2023-06-22T14:28:45;13.67;;;12.43;;
11761;SDS011;5938;47.098;15.474;2023-06-22T14:32:51;14.10;;;12.73;;
11761;SDS011;5938;47.098;15.474;2023-06-22T14:36:55;14.77;;;13.10;;
11761;SDS011;5938;47.098;15.474;2023-06-22T14:40:58;13.47;;;12.20;;
11761;SDS011;5938;47.098;15.474;2023-06-22T14:45:14;13.67;;;12.57;;
11761;SDS011;5938;47.098;15.474;2023-06-22T14:49:21;12.47;;;11.43;;
11761;SDS011;5938;47.098;15.474;2023-06-22T14:53:24;13.43;;;12.17;;
11761;SDS011;5938;47.098;15.474;2023-06-22T14:57:28;12.70;;;11.40;;
11761;SDS011;5938;47.098;15.474;2023-06-22T15:01:31;14.23;;;12.73;;
11761;SDS011;5938;47.098;15.474;2023-06-22T15:05:36;12.90;;;11.57;;
11761;SDS011;5938;47.098;15.474;2023-06-22T15:09:39;13.53;;;12.20;;
11761;SDS011;5938;47.098;15.474;2023-06-22T15:13:44;14.30;;;13.13;;
11761;SDS011;5938;47.098;15.474;2023-06-22T15:17:47;13.70;;;12.40;;
11761;SDS011;5938;47.098;15.474;2023-06-22T15:21:53;15.27;;;13.47;;
11761;SDS011;5938;47.098;15.474;2023-06-22T15:25:57;14.93;;;13.43;;
11761;SDS011;5938;47.098;15.474;2023-06-22T15:30:02;14.37;;;12.97;;
11761;SDS011;5938;47.098;15.474;2023-06-22T15:34:06;17.37;;;12.53;;
11761;SDS011;5938;47.098;15.474;2023-06-22T15:38:11;16.07;;;14.33;;
11761;SDS011;5938;47.098;15.474;2023-06-22T15:42:15;15.73;;;13.13;;
11761;SDS011;5938;47.098;15.474;2023-06-22T15:46:18;14.43;;;13.13;;
11761;SDS011;5938;47.098;15.474;2023-06-22T15:50:24;14.10;;;12.70;;
11761;SDS011;5938;47.098;15.474;2023-06-22T16:19:37;18.43;;;16.63;;
11761;SDS011;5938;47.098;15.474;2023-06-22T16:23:41;17.53;;;15.83;;
11761;SDS011;5938;47.098;15.474;2023-06-22T16:27:46;21.10;;;16.47;;
11761;SDS011;5938;47.098;15.474;2023-06-22T16:31:49;18.93;;;14.83;;
11761;SDS011;5938;47.098;15.474;2023-06-22T16:35:57;20.93;;;15.90;;
11761;SDS011;5938;47.098;15.474;2023-06-22T16:40:30;16.70;;;15.20;;
11761;SDS011;5938;47.098;15.474;2023-06-22T16:44:34;17.33;;;15.63;;
11761;SDS011;5938;47.098;15.474;2023-06-22T16:48:38;15.70;;;14.10;;
11761;SDS011;5938;47.098;15.474;2023-06-22T16:52:47;17.30;;;15.43;;
11761;SDS011;5938;47.098;15.474;2023-06-22T16:56:52;16.90;;;15.30;;
11761;SDS011;5938;47.098;15.474;2023-06-22T17:00:56;18.20;;;16.00;;
11761;SDS011;5938;47.098;15.474;2023-06-22T17:05:00;18.03;;;16.23;;
11761;SDS011;5938;47.098;15.474;2023-06-22T17:09:06;18.40;;;16.60;;
11761;SDS011;5938;47.098;15.474;2023-06-22T17:13:17;18.60;;;16.80;;
11761;SDS011;5938;47.098;15.474;2023-06-22T17:17:21;17.77;;;16.07;;
11761;SDS011;5938;47.098;15.474;2023-06-22T17:21:32;23.87;;;16.57;;
11761;SDS011;5938;47.098;15.474;2023-06-22T17:25:48;17.63;;;15.93;;
11761;SDS011;5938;47.098;15.474;2023-06-22T17:30:02;19.23;;;17.53;;
11761;SDS011;5938;47.098;15.474;2023-06-22T17:34:08;19.23;;;16.80;;
11761;SDS011;5938;47.098;15.474;2023-06-22T17:38:15;19.40;;;17.47;;
11761;SDS011;5938;47.098;15.474;2023-06-22T17:42:24;20.00;;;17.57;;
11761;SDS011;5938;47.098;15.474;2023-06-22T17:46:33;19.10;;;16.40;;
11761;SDS011;5938;47.098;15.474;2023-06-22T17:50:39;18.63;;;16.73;;
11761;SDS011;5938;47.098;15.474;2023-06-22T17:54:45;19.23;;;17.30;;
11761;SDS011;5938;47.098;15.474;2023-06-22T17:58:53;20.47;;;18.10;;
11761;SDS011;5938;47.098;15.474;2023-06-22T18:02:57;20.40;;;17.50;;
11761;SDS011;5938;47.098;15.474;2023-06-22T18:07:01;19.70;;;17.67;;
11761;SDS011;5938;47.098;15.474;2023-06-22T18:11:05;19.37;;;17.57;;
11761;SDS011;5938;47.098;15.474;2023-06-22T18:15:26;19.33;;;17.33;;
11761;SDS011;5938;47.098;15.474;2023-06-22T18:23:45;20.27;;;18.43;;
11761;SDS011;5938;47.098;15.474;2023-06-22T18:27:49;21.17;;;19.17;;
11761;SDS011;5938;47.098;15.474;2023-06-22T18:31:55;22.63;;;19.50;;
11761;SDS011;5938;47.098;15.474;2023-06-22T18:35:59;20.40;;;18.27;;
11761;SDS011;5938;47.098;15.474;2023-06-22T18:40:06;22.23;;;20.00;;
11761;SDS011;5938;47.098;15.474;2023-06-22T18:44:17;21.80;;;19.47;;
11761;SDS011;5938;47.098;15.474;2023-06-22T18:48:24;20.10;;;18.30;;
11761;SDS011;5938;47.098;15.474;2023-06-22T18:52:31;24.43;;;20.27;;
11761;SDS011;5938;47.098;15.474;2023-06-22T18:56:41;26.07;;;20.50;;
11761;SDS011;5938;47.098;15.474;2023-06-22T19:00:54;23.73;;;18.70;;
11761;SDS011;5938;47.098;15.474;2023-06-22T19:05:37;24.10;;;21.60;;
11761;SDS011;5938;47.098;15.474;2023-06-22T19:09:47;21.27;;;18.77;;
11761;SDS011;5938;47.098;15.474;2023-06-22T19:14:48;23.23;;;19.90;;
11761;SDS011;5938;47.098;15.474;2023-06-22T19:19:15;22.67;;;20.53;;
11761;SDS011;5938;47.098;15.474;2023-06-22T19:23:22;21.80;;;19.67;;
11761;SDS011;5938;47.098;15.474;2023-06-22T19:27:37;24.30;;;21.80;;
11761;SDS011;5938;47.098;15.474;2023-06-22T19:31:43;22.63;;;20.20;;
11761;SDS011;5938;47.098;15.474;2023-06-22T19:35:47;21.77;;;19.57;;
11761;SDS011;5938;47.098;15.474;2023-06-22T19:39:52;23.97;;;21.60;;
11761;SDS011;5938;47.098;15.474;2023-06-22T19:43:59;23.80;;;21.70;;
11761;SDS011;5938;47.098;15.474;2023-06-22T19:48:10;22.50;;;20.47;;
11761;SDS011;5938;47.098;15.474;2023-06-22T19:52:19;25.07;;;21.10;;
11761;SDS011;5938;47.098;15.474;2023-06-22T19:56:28;22.30;;;20.20;;
11761;SDS011;5938;47.098;15.474;2023-06-22T20:00:34;23.20;;;21.00;;
11761;SDS011;5938;47.098;15.474;2023-06-22T20:04:46;22.30;;;20.10;;
11761;SDS011;5938;47.098;15.474;2023-06-22T20:09:14;21.57;;;19.50;;
11761;SDS011;5938;47.098;15.474;2023-06-22T20:13:19;22.63;;;20.50;;
11761;SDS011;5938;47.098;15.474;2023-06-22T20:17:23;23.33;;;20.97;;
11761;SDS011;5938;47.098;15.474;2023-06-22T20:21:28;23.30;;;21.00;;
11761;SDS011;5938;47.098;15.474;2023-06-22T20:25:34;24.20;;;21.70;;
11761;SDS011;5938;47.098;15.474;2023-06-22T20:29:39;23.03;;;20.73;;
11761;SDS011;5938;47.098;15.474;2023-06-22T20:33:45;23.90;;;21.47;;
11761;SDS011;5938;47.098;15.474;2023-06-22T20:37:51;24.03;;;21.53;;
11761;SDS011;5938;47.098;15.474;2023-06-22T20:41:58;28.83;;;21.20;;
11761;SDS011;5938;47.098;15.474;2023-06-22T20:46:01;24.00;;;21.80;;
11761;SDS011;5938;47.098;15.474;2023-06-22T20:50:27;23.63;;;21.40;;
11761;SDS011;5938;47.098;15.474;2023-06-22T20:54:33;25.17;;;20.80;;
11761;SDS011;5938;47.098;15.474;2023-06-22T20:58:37;24.20;;;21.90;;
11761;SDS011;5938;47.098;15.474;2023-06-22T21:02:41;23.00;;;20.77;;
11761;SDS011;5938;47.098;15.474;2023-06-22T21:06:44;25.17;;;22.73;;
11761;SDS011;5938;47.098;15.474;2023-06-22T21:10:49;22.07;;;19.73;;
11761;SDS011;5938;47.098;15.474;2023-06-22T21:14:55;24.57;;;21.73;;
11761;SDS011;5938;47.098;15.474;2023-06-22T21:18:58;25.30;;;22.80;;
11761;SDS011;5938;47.098;15.474;2023-06-22T21:23:02;23.80;;;21.37;;
11761;SDS011;5938;47.098;15.474;2023-06-22T21:27:08;25.50;;;22.90;;
11761;SDS011;5938;47.098;15.474;2023-06-22T21:31:11;24.97;;;22.40;;
11761;SDS011;5938;47.098;15.474;2023-06-22T21:35:15;24.03;;;21.70;;
11761;SDS011;5938;47.098;15.474;2023-06-22T21:39:20;24.10;;;21.50;;
11761;SDS011;5938;47.098;15.474;2023-06-22T21:43:24;24.00;;;21.60;;
11761;SDS011;5938;47.098;15.474;2023-06-22T21:47:28;24.60;;;22.30;;
11761;SDS011;5938;47.098;15.474;2023-06-22T21:51:31;29.30;;;22.50;;
11761;SDS011;5938;47.098;15.474;2023-06-22T21:55:35;23.77;;;21.30;;
11761;SDS011;5938;47.098;15.474;2023-06-22T21:59:40;23.30;;;21.10;;
11761;SDS011;5938;47.098;15.474;2023-06-22T22:03:43;25.37;;;22.87;;
11761;SDS011;5938;47.098;15.474;2023-06-22T22:07:47;26.73;;;23.73;;
11761;SDS011;5938;47.098;15.474;2023-06-22T22:11:52;28.50;;;23.07;;
11761;SDS011;5938;47.098;15.474;2023-06-22T22:15:57;30.30;;;23.83;;
11761;SDS011;5938;47.098;15.474;2023-06-22T22:20:00;25.03;;;22.40;;
11761;SDS011;5938;47.098;15.474;2023-06-22T22:24:05;24.83;;;22.50;;
11761;SDS011;5938;47.098;15.474;2023-06-22T22:28:08;26.53;;;23.93;;
11761;SDS011;5938;47.098;15.474;2023-06-22T22:32:14;26.53;;;24.03;;
11761;SDS011;5938;47.098;15.474;2023-06-22T22:36:18;27.90;;;24.50;;
11761;SDS011;5938;47.098;15.474;2023-06-22T22:40:21;27.47;;;24.10;;
11761;SDS011;5938;47.098;15.474;2023-06-22T22:44:24;27.47;;;24.83;;
11761;SDS011;5938;47.098;15.474;2023-06-22T22:48:29;25.00;;;22.70;;
11761;SDS011;5938;47.098;15.474;2023-06-22T22:52:32;25.90;;;23.13;;
11761;SDS011;5938;47.098;15.474;2023-06-22T22:56:36;27.83;;;24.13;;
11761;SDS011;5938;47.098;15.474;2023-06-22T23:00:40;27.50;;;24.60;;
11761;SDS011;5938;47.098;15.474;2023-06-22T23:04:45;25.73;;;23.03;;
11761;SDS011;5938;47.098;15.474;2023-06-22T23:08:57;26.13;;;23.47;;
11761;SDS011;5938;47.098;15.474;2023-06-22T23:13:01;25.93;;;23.30;;
11761;SDS011;5938;47.098;15.474;2023-06-22T23:17:05;27.73;;;24.93;;
11761;SDS011;5938;47.098;15.474;2023-06-22T23:21:11;27.83;;;24.00;;
11761;SDS011;5938;47.098;15.474;2023-06-22T23:25:14;26.93;;;24.27;;
11761;SDS011;5938;47.098;15.474;2023-06-22T23:29:17;27.90;;;25.10;;
11761;SDS011;5938;47.098;15.474;2023-06-22T23:33:22;27.10;;;24.50;;
11761;SDS011;5938;47.098;15.474;2023-06-22T23:37:28;26.60;;;24.13;;
11761;SDS011;5938;47.098;15.474;2023-06-22T23:41:32;27.77;;;24.17;;
11761;SDS011;5938;47.098;15.474;2023-06-22T23:45:36;26.53;;;24.17;;
11761;SDS011;5938;47.098;15.474;2023-06-22T23:49:39;27.40;;;24.70;;
11761;SDS011;5938;47.098;15.474;2023-06-22T23:53:47;28.80;;;25.80;;
11761;SDS011;5938;47.098;15.474;2023-06-22T23:57:50;28.23;;;25.53;;
